sensor_id;sensor_type;location;lat;lon;timestamp;temperature;humidity
31113;DHT22;17763;48.730;9.136;2022-07-21T00:01:58;21.40;99.90
31113;DHT22;17763;48.730;9.136;2022-07-21T00:04:23;21.30;99.90
31113;DHT22;17763;48.730;9.136;2022-07-21T00:06:49;21.30;99.90
31113;DHT22;17763;48.730;9.136;2022-07-21T00:09:16;21.30;99.90
31113;DHT22;17763;48.730;9.136;2022-07-21T00:11:45;21.30;99.90
31113;DHT22;17763;48.730;9.136;2022-07-21T00:14:11;21.30;99.90
31113;DHT22;17763;48.730;9.136;2022-07-21T00:16:40;21.30;99.90
31113;DHT22;17763;48.730;9.136;2022-07-21T00:19:07;21.30;99.90
31113;DHT22;17763;48.730;9.136;2022-07-21T00:21:33;21.30;99.90
31113;DHT22;17763;48.730;9.136;2022-07-21T00:24:01;21.30;99.90
31113;DHT22;17763;48.730;9.136;2022-07-21T00:26:27;21.30;99.90
31113;DHT22;17763;48.730;9.136;2022-07-21T00:28:53;21.30;99.90
31113;DHT22;17763;48.730;9.136;2022-07-21T00:31:19;21.20;99.90
31113;DHT22;17763;48.730;9.136;2022-07-21T00:33:44;21.20;99.90
31113;DHT22;17763;48.730;9.136;2022-07-21T00:36:17;21.20;99.90
31113;DHT22;17763;48.730;9.136;2022-07-21T00:38:45;21.20;99.90
31113;DHT22;17763;48.730;9.136;2022-07-21T00:41:14;21.10;99.90
31113;DHT22;17763;48.730;9.136;2022-07-21T00:43:40;21.10;99.90
31113;DHT22;17763;48.730;9.136;2022-07-21T00:46:05;21.20;99.90
31113;DHT22;17763;48.730;9.136;2022-07-21T00:48:33;21.10;99.90
31113;DHT22;17763;48.730;9.136;2022-07-21T00:50:59;21.10;99.90
31113;DHT22;17763;48.730;9.136;2022-07-21T00:53:27;21.10;99.90
31113;DHT22;17763;48.730;9.136;2022-07-21T00:55:53;21.10;99.90
31113;DHT22;17763;48.730;9.136;2022-07-21T00:58:20;21.10;99.90
31113;DHT22;17763;48.730;9.136;2022-07-21T01:00:46;21.00;99.90
31113;DHT22;17763;48.730;9.136;2022-07-21T01:03:11;21.00;99.90
31113;DHT22;17763;48.730;9.136;2022-07-21T01:05:37;20.90;99.90
31113;DHT22;17763;48.730;9.136;2022-07-21T01:08:03;20.90;99.90
31113;DHT22;17763;48.730;9.136;2022-07-21T01:10:30;20.90;99.90
31113;DHT22;17763;48.730;9.136;2022-07-21T01:13:01;20.80;99.90
31113;DHT22;17763;48.730;9.136;2022-07-21T01:15:32;20.80;99.90
31113;DHT22;17763;48.730;9.136;2022-07-21T01:17:57;20.70;99.90
31113;DHT22;17763;48.730;9.136;2022-07-21T01:20:24;20.70;99.90
31113;DHT22;17763;48.730;9.136;2022-07-21T01:22:53;20.70;99.90
31113;DHT22;17763;48.730;9.136;2022-07-21T01:25:19;20.60;99.90
31113;DHT22;17763;48.730;9.136;2022-07-21T01:27:48;20.50;99.90
31113;DHT22;17763;48.730;9.136;2022-07-21T01:30:15;20.50;99.90
31113;DHT22;17763;48.730;9.136;2022-07-21T01:32:41;20.50;99.90
31113;DHT22;17763;48.730;9.136;2022-07-21T01:35:11;20.50;99.90
31113;DHT22;17763;48.730;9.136;2022-07-21T01:37:40;20.50;99.90
31113;DHT22;17763;48.730;9.136;2022-07-21T01:40:08;20.50;99.90
31113;DHT22;17763;48.730;9.136;2022-07-21T01:42:52;20.40;99.90
31113;DHT22;17763;48.730;9.136;2022-07-21T01:45:21;20.40;99.90
31113;DHT22;17763;48.730;9.136;2022-07-21T01:47:49;20.40;99.90
31113;DHT22;17763;48.730;9.136;2022-07-21T01:50:15;20.40;99.90
31113;DHT22;17763;48.730;9.136;2022-07-21T01:52:41;20.40;99.90
31113;DHT22;17763;48.730;9.136;2022-07-21T01:55:09;20.50;99.90
31113;DHT22;17763;48.730;9.136;2022-07-21T01:57:35;20.40;99.90
31113;DHT22;17763;48.730;9.136;2022-07-21T02:00:04;20.40;99.90
31113;DHT22;17763;48.730;9.136;2022-07-21T02:02:30;20.40;99.90
31113;DHT22;17763;48.730;9.136;2022-07-21T02:04:55;20.40;99.90
31113;DHT22;17763;48.730;9.136;2022-07-21T02:07:23;20.40;99.90
31113;DHT22;17763;48.730;9.136;2022-07-21T02:09:53;20.40;99.90
31113;DHT22;17763;48.730;9.136;2022-07-21T02:12:19;20.50;99.90
31113;DHT22;17763;48.730;9.136;2022-07-21T02:14:47;20.50;99.90
31113;DHT22;17763;48.730;9.136;2022-07-21T02:17:12;20.50;99.90
31113;DHT22;17763;48.730;9.136;2022-07-21T02:19:38;20.50;99.90
31113;DHT22;17763;48.730;9.136;2022-07-21T02:22:04;20.50;99.90
31113;DHT22;17763;48.730;9.136;2022-07-21T02:24:34;20.40;99.90
31113;DHT22;17763;48.730;9.136;2022-07-21T02:27:00;20.40;99.90
31113;DHT22;17763;48.730;9.136;2022-07-21T02:29:28;20.30;99.90
31113;DHT22;17763;48.730;9.136;2022-07-21T02:31:54;20.30;99.90
31113;DHT22;17763;48.730;9.136;2022-07-21T02:34:22;20.30;99.90
31113;DHT22;17763;48.730;9.136;2022-07-21T02:36:47;20.20;99.90
31113;DHT22;17763;48.730;9.136;2022-07-21T02:39:15;20.20;99.90
31113;DHT22;17763;48.730;9.136;2022-07-21T02:41:41;20.30;99.90
31113;DHT22;17763;48.730;9.136;2022-07-21T02:44:07;20.30;99.90
31113;DHT22;17763;48.730;9.136;2022-07-21T02:46:32;20.20;99.90
31113;DHT22;17763;48.730;9.136;2022-07-21T02:48:58;20.20;99.90
31113;DHT22;17763;48.730;9.136;2022-07-21T02:51:24;20.20;99.90
31113;DHT22;17763;48.730;9.136;2022-07-21T02:53:54;20.10;99.90
31113;DHT22;17763;48.730;9.136;2022-07-21T02:56:20;20.10;99.90
31113;DHT22;17763;48.730;9.136;2022-07-21T02:58:48;20.00;99.90
31113;DHT22;17763;48.730;9.136;2022-07-21T03:01:13;20.10;99.90
31113;DHT22;17763;48.730;9.136;2022-07-21T03:03:44;20.10;99.90
31113;DHT22;17763;48.730;9.136;2022-07-21T03:06:12;20.20;99.90
31113;DHT22;17763;48.730;9.136;2022-07-21T03:08:37;20.20;99.90
31113;DHT22;17763;48.730;9.136;2022-07-21T03:11:05;20.20;99.90
31113;DHT22;17763;48.730;9.136;2022-07-21T03:13:31;20.10;99.90
31113;DHT22;17763;48.730;9.136;2022-07-21T03:15:56;20.00;99.90
31113;DHT22;17763;48.730;9.136;2022-07-21T03:18:24;20.00;99.90
31113;DHT22;17763;48.730;9.136;2022-07-21T03:20:53;20.00;99.90
31113;DHT22;17763;48.730;9.136;2022-07-21T03:23:18;19.90;99.90
31113;DHT22;17763;48.730;9.136;2022-07-21T03:25:44;19.90;99.90
31113;DHT22;17763;48.730;9.136;2022-07-21T03:28:10;19.90;99.90
31113;DHT22;17763;48.730;9.136;2022-07-21T03:30:36;19.80;99.90
31113;DHT22;17763;48.730;9.136;2022-07-21T03:33:01;19.80;99.90
31113;DHT22;17763;48.730;9.136;2022-07-21T03:35:27;19.80;99.90
31113;DHT22;17763;48.730;9.136;2022-07-21T03:37:57;19.70;99.90
31113;DHT22;17763;48.730;9.136;2022-07-21T03:40:25;19.80;99.90
31113;DHT22;17763;48.730;9.136;2022-07-21T03:42:56;19.80;99.90
31113;DHT22;17763;48.730;9.136;2022-07-21T03:45:22;19.80;99.90
31113;DHT22;17763;48.730;9.136;2022-07-21T03:47:48;19.80;99.90
31113;DHT22;17763;48.730;9.136;2022-07-21T03:50:18;19.80;99.90
31113;DHT22;17763;48.730;9.136;2022-07-21T03:52:52;19.80;99.90
31113;DHT22;17763;48.730;9.136;2022-07-21T03:55:18;19.70;99.90
31113;DHT22;17763;48.730;9.136;2022-07-21T03:57:55;19.80;99.90
31113;DHT22;17763;48.730;9.136;2022-07-21T04:00:30;19.80;99.90
31113;DHT22;17763;48.730;9.136;2022-07-21T04:02:56;19.80;99.90
31113;DHT22;17763;48.730;9.136;2022-07-21T04:05:22;19.80;99.90
31113;DHT22;17763;48.730;9.136;2022-07-21T04:07:49;19.80;99.90
31113;DHT22;17763;48.730;9.136;2022-07-21T04:10:18;19.80;99.90
31113;DHT22;17763;48.730;9.136;2022-07-21T04:12:44;19.70;99.90
31113;DHT22;17763;48.730;9.136;2022-07-21T04:15:12;19.80;99.90
31113;DHT22;17763;48.730;9.136;2022-07-21T04:17:40;19.80;99.90
31113;DHT22;17763;48.730;9.136;2022-07-21T04:20:07;19.80;99.90
31113;DHT22;17763;48.730;9.136;2022-07-21T04:22:36;19.80;99.90
31113;DHT22;17763;48.730;9.136;2022-07-21T04:25:05;19.80;99.90
31113;DHT22;17763;48.730;9.136;2022-07-21T04:27:35;19.80;99.90
31113;DHT22;17763;48.730;9.136;2022-07-21T04:30:01;19.90;99.90
31113;DHT22;17763;48.730;9.136;2022-07-21T04:32:27;19.90;99.90
31113;DHT22;17763;48.730;9.136;2022-07-21T04:34:55;20.00;99.90
31113;DHT22;17763;48.730;9.136;2022-07-21T04:37:22;20.00;99.90
31113;DHT22;17763;48.730;9.136;2022-07-21T04:39:48;20.00;99.90
31113;DHT22;17763;48.730;9.136;2022-07-21T04:42:14;20.00;99.90
31113;DHT22;17763;48.730;9.136;2022-07-21T04:44:40;20.00;99.90
31113;DHT22;17763;48.730;9.136;2022-07-21T04:47:05;20.00;99.90
31113;DHT22;17763;48.730;9.136;2022-07-21T04:49:31;20.00;99.90
31113;DHT22;17763;48.730;9.136;2022-07-21T04:51:57;20.10;99.90
31113;DHT22;17763;48.730;9.136;2022-07-21T04:54:22;20.00;99.90
31113;DHT22;17763;48.730;9.136;2022-07-21T04:56:48;20.10;99.90
31113;DHT22;17763;48.730;9.136;2022-07-21T04:59:14;20.10;99.90
31113;DHT22;17763;48.730;9.136;2022-07-21T05:01:40;20.10;99.90
31113;DHT22;17763;48.730;9.136;2022-07-21T05:04:06;20.20;99.90
31113;DHT22;17763;48.730;9.136;2022-07-21T05:06:35;20.20;99.90
31113;DHT22;17763;48.730;9.136;2022-07-21T05:09:05;20.20;99.90
31113;DHT22;17763;48.730;9.136;2022-07-21T05:11:31;20.20;99.90
31113;DHT22;17763;48.730;9.136;2022-07-21T05:13:56;20.20;99.90
31113;DHT22;17763;48.730;9.136;2022-07-21T05:16:22;20.30;99.90
31113;DHT22;17763;48.730;9.136;2022-07-21T05:18:48;20.30;99.90
31113;DHT22;17763;48.730;9.136;2022-07-21T05:21:14;20.40;99.90
31113;DHT22;17763;48.730;9.136;2022-07-21T05:23:44;20.40;99.90
31113;DHT22;17763;48.730;9.136;2022-07-21T05:26:11;20.50;99.90
31113;DHT22;17763;48.730;9.136;2022-07-21T05:28:38;20.50;99.90
31113;DHT22;17763;48.730;9.136;2022-07-21T05:31:03;20.50;99.90
31113;DHT22;17763;48.730;9.136;2022-07-21T05:33:29;20.60;99.90
31113;DHT22;17763;48.730;9.136;2022-07-21T05:35:55;20.60;99.90
31113;DHT22;17763;48.730;9.136;2022-07-21T05:38:20;20.60;99.90
31113;DHT22;17763;48.730;9.136;2022-07-21T05:40:47;20.60;99.90
31113;DHT22;17763;48.730;9.136;2022-07-21T05:43:15;20.70;99.90
31113;DHT22;17763;48.730;9.136;2022-07-21T05:45:40;20.70;99.90
31113;DHT22;17763;48.730;9.136;2022-07-21T05:48:11;20.70;99.90
31113;DHT22;17763;48.730;9.136;2022-07-21T05:50:36;20.70;99.90
31113;DHT22;17763;48.730;9.136;2022-07-21T05:53:02;20.80;99.90
31113;DHT22;17763;48.730;9.136;2022-07-21T05:55:28;20.80;99.90
31113;DHT22;17763;48.730;9.136;2022-07-21T05:57:56;20.80;99.90
31113;DHT22;17763;48.730;9.136;2022-07-21T06:00:21;20.90;99.90
31113;DHT22;17763;48.730;9.136;2022-07-21T06:02:47;20.90;99.90
31113;DHT22;17763;48.730;9.136;2022-07-21T06:05:14;20.90;99.90
31113;DHT22;17763;48.730;9.136;2022-07-21T06:07:40;20.90;99.90
31113;DHT22;17763;48.730;9.136;2022-07-21T06:10:06;20.90;99.90
31113;DHT22;17763;48.730;9.136;2022-07-21T06:12:32;21.00;99.90
31113;DHT22;17763;48.730;9.136;2022-07-21T06:14:58;21.00;99.90
31113;DHT22;17763;48.730;9.136;2022-07-21T06:17:23;20.90;99.90
31113;DHT22;17763;48.730;9.136;2022-07-21T06:19:49;20.90;99.90
31113;DHT22;17763;48.730;9.136;2022-07-21T06:22:18;20.90;99.90
31113;DHT22;17763;48.730;9.136;2022-07-21T06:24:43;20.90;99.90
31113;DHT22;17763;48.730;9.136;2022-07-21T06:27:09;20.90;99.90
31113;DHT22;17763;48.730;9.136;2022-07-21T06:29:35;20.80;99.90
31113;DHT22;17763;48.730;9.136;2022-07-21T06:32:01;20.90;99.90
31113;DHT22;17763;48.730;9.136;2022-07-21T06:34:26;20.90;99.90
31113;DHT22;17763;48.730;9.136;2022-07-21T06:36:52;20.90;99.90
31113;DHT22;17763;48.730;9.136;2022-07-21T06:39:18;20.90;99.90
31113;DHT22;17763;48.730;9.136;2022-07-21T06:41:46;20.90;99.90
31113;DHT22;17763;48.730;9.136;2022-07-21T06:44:16;20.90;99.90
31113;DHT22;17763;48.730;9.136;2022-07-21T06:46:41;21.00;99.90
31113;DHT22;17763;48.730;9.136;2022-07-21T06:49:07;21.00;99.90
31113;DHT22;17763;48.730;9.136;2022-07-21T06:51:33;21.00;99.90
31113;DHT22;17763;48.730;9.136;2022-07-21T06:53:58;21.00;99.90
31113;DHT22;17763;48.730;9.136;2022-07-21T06:56:24;21.10;99.90
31113;DHT22;17763;48.730;9.136;2022-07-21T06:58:50;21.10;99.90
31113;DHT22;17763;48.730;9.136;2022-07-21T07:01:16;21.10;99.90
31113;DHT22;17763;48.730;9.136;2022-07-21T07:03:43;21.20;99.90
31113;DHT22;17763;48.730;9.136;2022-07-21T07:06:09;21.20;99.90
31113;DHT22;17763;48.730;9.136;2022-07-21T07:08:35;21.20;99.90
31113;DHT22;17763;48.730;9.136;2022-07-21T07:11:02;21.20;99.90
31113;DHT22;17763;48.730;9.136;2022-07-21T07:13:28;21.30;99.90
31113;DHT22;17763;48.730;9.136;2022-07-21T07:15:54;21.30;99.90
31113;DHT22;17763;48.730;9.136;2022-07-21T07:18:22;21.30;99.90
31113;DHT22;17763;48.730;9.136;2022-07-21T07:20:49;21.40;99.90
31113;DHT22;17763;48.730;9.136;2022-07-21T07:23:16;21.40;99.90
31113;DHT22;17763;48.730;9.136;2022-07-21T07:25:41;21.40;99.90
31113;DHT22;17763;48.730;9.136;2022-07-21T07:28:09;21.40;99.90
31113;DHT22;17763;48.730;9.136;2022-07-21T07:30:35;21.50;99.90
31113;DHT22;17763;48.730;9.136;2022-07-21T07:33:01;21.60;99.90
31113;DHT22;17763;48.730;9.136;2022-07-21T07:35:27;21.70;99.90
31113;DHT22;17763;48.730;9.136;2022-07-21T07:37:53;21.80;99.90
31113;DHT22;17763;48.730;9.136;2022-07-21T07:40:20;21.80;99.90
31113;DHT22;17763;48.730;9.136;2022-07-21T07:42:46;22.00;99.90
31113;DHT22;17763;48.730;9.136;2022-07-21T07:45:13;22.10;99.90
31113;DHT22;17763;48.730;9.136;2022-07-21T07:47:41;22.10;99.90
31113;DHT22;17763;48.730;9.136;2022-07-21T07:50:10;22.20;99.90
31113;DHT22;17763;48.730;9.136;2022-07-21T07:52:40;22.30;99.90
31113;DHT22;17763;48.730;9.136;2022-07-21T07:55:06;22.40;99.90
31113;DHT22;17763;48.730;9.136;2022-07-21T07:57:38;22.50;99.90
31113;DHT22;17763;48.730;9.136;2022-07-21T08:00:07;22.60;99.90
31113;DHT22;17763;48.730;9.136;2022-07-21T08:02:36;22.70;99.90
31113;DHT22;17763;48.730;9.136;2022-07-21T08:05:03;22.60;99.90
31113;DHT22;17763;48.730;9.136;2022-07-21T08:07:32;22.60;99.90
31113;DHT22;17763;48.730;9.136;2022-07-21T08:09:57;22.60;99.90
31113;DHT22;17763;48.730;9.136;2022-07-21T08:12:23;22.60;99.90
31113;DHT22;17763;48.730;9.136;2022-07-21T08:14:49;22.60;99.90
31113;DHT22;17763;48.730;9.136;2022-07-21T08:17:14;22.60;99.90
31113;DHT22;17763;48.730;9.136;2022-07-21T08:19:44;22.50;99.90
31113;DHT22;17763;48.730;9.136;2022-07-21T08:22:10;22.50;99.90
31113;DHT22;17763;48.730;9.136;2022-07-21T08:24:35;22.40;99.90
31113;DHT22;17763;48.730;9.136;2022-07-21T08:27:03;22.40;99.90
31113;DHT22;17763;48.730;9.136;2022-07-21T08:29:29;22.40;99.90
31113;DHT22;17763;48.730;9.136;2022-07-21T08:31:55;22.50;99.90
31113;DHT22;17763;48.730;9.136;2022-07-21T08:34:20;22.50;99.90
31113;DHT22;17763;48.730;9.136;2022-07-21T08:36:49;22.60;99.90
31113;DHT22;17763;48.730;9.136;2022-07-21T08:39:14;22.60;98.90
31113;DHT22;17763;48.730;9.136;2022-07-21T08:41:40;22.50;98.70
31113;DHT22;17763;48.730;9.136;2022-07-21T08:44:06;22.50;98.50
31113;DHT22;17763;48.730;9.136;2022-07-21T08:46:37;22.50;98.40
31113;DHT22;17763;48.730;9.136;2022-07-21T08:49:03;22.50;98.10
31113;DHT22;17763;48.730;9.136;2022-07-21T08:51:35;22.40;98.00
31113;DHT22;17763;48.730;9.136;2022-07-21T08:54:02;22.50;98.60
31113;DHT22;17763;48.730;9.136;2022-07-21T08:56:29;22.50;98.30
31113;DHT22;17763;48.730;9.136;2022-07-21T08:58:54;22.60;98.30
31113;DHT22;17763;48.730;9.136;2022-07-21T09:01:20;22.60;98.40
31113;DHT22;17763;48.730;9.136;2022-07-21T09:03:52;22.70;97.70
31113;DHT22;17763;48.730;9.136;2022-07-21T09:06:18;22.80;97.20
31113;DHT22;17763;48.730;9.136;2022-07-21T09:08:52;22.90;97.10
31113;DHT22;17763;48.730;9.136;2022-07-21T09:11:26;22.90;96.30
31113;DHT22;17763;48.730;9.136;2022-07-21T09:19:02;22.90;96.50
31113;DHT22;17763;48.730;9.136;2022-07-21T09:21:30;22.90;96.30
31113;DHT22;17763;48.730;9.136;2022-07-21T09:24:22;22.90;96.50
31113;DHT22;17763;48.730;9.136;2022-07-21T09:29:47;23.00;95.70
31113;DHT22;17763;48.730;9.136;2022-07-21T09:34:51;23.00;96.50
31113;DHT22;17763;48.730;9.136;2022-07-21T09:37:19;23.00;96.00
31113;DHT22;17763;48.730;9.136;2022-07-21T09:42:21;23.00;95.20
31113;DHT22;17763;48.730;9.136;2022-07-21T09:45:02;23.00;95.60
31113;DHT22;17763;48.730;9.136;2022-07-21T09:47:29;23.10;95.90
31113;DHT22;17763;48.730;9.136;2022-07-21T09:49:57;23.20;95.10
31113;DHT22;17763;48.730;9.136;2022-07-21T09:52:31;23.20;94.20
31113;DHT22;17763;48.730;9.136;2022-07-21T09:55:00;23.30;93.50
31113;DHT22;17763;48.730;9.136;2022-07-21T09:57:27;23.30;92.60
31113;DHT22;17763;48.730;9.136;2022-07-21T09:59:56;23.30;92.20
31113;DHT22;17763;48.730;9.136;2022-07-21T10:02:28;23.20;92.40
31113;DHT22;17763;48.730;9.136;2022-07-21T10:05:10;23.30;92.50
31113;DHT22;17763;48.730;9.136;2022-07-21T10:07:39;23.30;92.40
31113;DHT22;17763;48.730;9.136;2022-07-21T10:10:06;23.30;91.10
31113;DHT22;17763;48.730;9.136;2022-07-21T10:12:34;23.40;90.70
31113;DHT22;17763;48.730;9.136;2022-07-21T10:15:00;23.40;90.90
31113;DHT22;17763;48.730;9.136;2022-07-21T10:17:28;23.50;90.60
31113;DHT22;17763;48.730;9.136;2022-07-21T10:23:02;23.70;86.90
31113;DHT22;17763;48.730;9.136;2022-07-21T10:25:31;23.80;84.60
31113;DHT22;17763;48.730;9.136;2022-07-21T10:28:21;23.80;82.20
31113;DHT22;17763;48.730;9.136;2022-07-21T10:30:54;23.90;81.30
31113;DHT22;17763;48.730;9.136;2022-07-21T10:33:21;23.90;80.60
31113;DHT22;17763;48.730;9.136;2022-07-21T10:35:49;23.90;80.60
31113;DHT22;17763;48.730;9.136;2022-07-21T10:38:27;24.00;80.90
31113;DHT22;17763;48.730;9.136;2022-07-21T10:40:56;24.00;78.10
31113;DHT22;17763;48.730;9.136;2022-07-21T10:45:53;24.10;77.20
31113;DHT22;17763;48.730;9.136;2022-07-21T10:51:11;24.20;76.40
31113;DHT22;17763;48.730;9.136;2022-07-21T10:53:40;24.20;76.80
31113;DHT22;17763;48.730;9.136;2022-07-21T10:56:06;24.30;77.70
31113;DHT22;17763;48.730;9.136;2022-07-21T10:58:41;24.30;77.90
31113;DHT22;17763;48.730;9.136;2022-07-21T11:01:21;24.40;77.40
31113;DHT22;17763;48.730;9.136;2022-07-21T11:04:15;24.40;76.90
31113;DHT22;17763;48.730;9.136;2022-07-21T11:06:44;24.40;75.70
31113;DHT22;17763;48.730;9.136;2022-07-21T11:09:15;24.50;75.70
31113;DHT22;17763;48.730;9.136;2022-07-21T11:11:58;24.50;75.00
31113;DHT22;17763;48.730;9.136;2022-07-21T11:14:35;24.50;74.10
31113;DHT22;17763;48.730;9.136;2022-07-21T11:17:02;24.50;73.20
31113;DHT22;17763;48.730;9.136;2022-07-21T11:19:49;24.50;73.20
31113;DHT22;17763;48.730;9.136;2022-07-21T11:22:23;24.50;75.50
31113;DHT22;17763;48.730;9.136;2022-07-21T11:25:00;24.50;73.70
31113;DHT22;17763;48.730;9.136;2022-07-21T11:27:29;24.60;71.80
31113;DHT22;17763;48.730;9.136;2022-07-21T11:30:00;24.60;71.90
31113;DHT22;17763;48.730;9.136;2022-07-21T11:32:30;24.60;71.80
31113;DHT22;17763;48.730;9.136;2022-07-21T11:34:58;24.60;71.40
31113;DHT22;17763;48.730;9.136;2022-07-21T11:37:38;24.60;70.30
31113;DHT22;17763;48.730;9.136;2022-07-21T11:40:06;24.70;69.90
31113;DHT22;17763;48.730;9.136;2022-07-21T11:42:32;24.70;69.20
31113;DHT22;17763;48.730;9.136;2022-07-21T11:44:57;24.70;68.40
31113;DHT22;17763;48.730;9.136;2022-07-21T11:47:24;24.70;66.40
31113;DHT22;17763;48.730;9.136;2022-07-21T11:49:54;24.80;65.40
31113;DHT22;17763;48.730;9.136;2022-07-21T11:52:25;24.80;66.60
31113;DHT22;17763;48.730;9.136;2022-07-21T11:54:53;24.90;65.70
31113;DHT22;17763;48.730;9.136;2022-07-21T11:57:20;24.90;64.00
31113;DHT22;17763;48.730;9.136;2022-07-21T11:59:49;24.90;64.40
31113;DHT22;17763;48.730;9.136;2022-07-21T12:02:31;25.00;64.60
31113;DHT22;17763;48.730;9.136;2022-07-21T12:05:02;25.00;64.50
31113;DHT22;17763;48.730;9.136;2022-07-21T12:07:36;25.00;65.30
31113;DHT22;17763;48.730;9.136;2022-07-21T12:10:13;25.00;65.30
31113;DHT22;17763;48.730;9.136;2022-07-21T12:12:45;25.00;65.80
31113;DHT22;17763;48.730;9.136;2022-07-21T12:15:22;25.00;65.70
31113;DHT22;17763;48.730;9.136;2022-07-21T12:17:54;25.10;66.10
31113;DHT22;17763;48.730;9.136;2022-07-21T12:20:29;25.20;65.30
31113;DHT22;17763;48.730;9.136;2022-07-21T12:22:56;25.20;65.40
31113;DHT22;17763;48.730;9.136;2022-07-21T12:25:35;25.40;65.40
31113;DHT22;17763;48.730;9.136;2022-07-21T12:28:04;25.40;64.40
31113;DHT22;17763;48.730;9.136;2022-07-21T12:30:48;25.50;64.80
31113;DHT22;17763;48.730;9.136;2022-07-21T12:33:21;25.60;66.60
31113;DHT22;17763;48.730;9.136;2022-07-21T12:36:08;25.60;64.90
31113;DHT22;17763;48.730;9.136;2022-07-21T12:41:03;25.60;64.20
31113;DHT22;17763;48.730;9.136;2022-07-21T12:43:29;25.60;64.80
31113;DHT22;17763;48.730;9.136;2022-07-21T12:48:31;25.50;65.00
31113;DHT22;17763;48.730;9.136;2022-07-21T12:51:01;25.50;65.80
31113;DHT22;17763;48.730;9.136;2022-07-21T12:53:30;25.50;67.00
31113;DHT22;17763;48.730;9.136;2022-07-21T12:55:56;25.50;66.80
31113;DHT22;17763;48.730;9.136;2022-07-21T12:58:22;25.50;66.70
31113;DHT22;17763;48.730;9.136;2022-07-21T13:00:50;25.40;67.60
31113;DHT22;17763;48.730;9.136;2022-07-21T13:03:16;25.50;68.20
31113;DHT22;17763;48.730;9.136;2022-07-21T13:05:46;25.50;67.40
31113;DHT22;17763;48.730;9.136;2022-07-21T13:08:12;25.50;67.00
31113;DHT22;17763;48.730;9.136;2022-07-21T13:10:40;25.60;67.40
31113;DHT22;17763;48.730;9.136;2022-07-21T13:13:06;25.60;67.60
31113;DHT22;17763;48.730;9.136;2022-07-21T13:15:36;25.60;68.00
31113;DHT22;17763;48.730;9.136;2022-07-21T13:18:04;25.60;68.00
31113;DHT22;17763;48.730;9.136;2022-07-21T13:20:30;25.60;67.00
31113;DHT22;17763;48.730;9.136;2022-07-21T13:22:56;25.60;66.50
31113;DHT22;17763;48.730;9.136;2022-07-21T13:25:24;25.70;67.30
31113;DHT22;17763;48.730;9.136;2022-07-21T13:27:49;25.70;67.60
31113;DHT22;17763;48.730;9.136;2022-07-21T13:30:15;25.80;67.90
31113;DHT22;17763;48.730;9.136;2022-07-21T13:32:41;25.90;68.00
31113;DHT22;17763;48.730;9.136;2022-07-21T13:35:07;25.80;68.30
31113;DHT22;17763;48.730;9.136;2022-07-21T13:37:35;25.80;68.40
31113;DHT22;17763;48.730;9.136;2022-07-21T13:40:01;25.70;68.70
31113;DHT22;17763;48.730;9.136;2022-07-21T13:42:30;25.70;67.50
31113;DHT22;17763;48.730;9.136;2022-07-21T13:44:58;25.70;68.00
31113;DHT22;17763;48.730;9.136;2022-07-21T13:47:24;25.80;69.30
31113;DHT22;17763;48.730;9.136;2022-07-21T13:49:49;25.90;68.70
31113;DHT22;17763;48.730;9.136;2022-07-21T13:52:15;25.90;68.10
31113;DHT22;17763;48.730;9.136;2022-07-21T13:54:41;25.90;68.20
31113;DHT22;17763;48.730;9.136;2022-07-21T13:57:11;26.00;67.90
31113;DHT22;17763;48.730;9.136;2022-07-21T13:59:37;26.00;66.50
31113;DHT22;17763;48.730;9.136;2022-07-21T14:02:05;26.00;65.80
31113;DHT22;17763;48.730;9.136;2022-07-21T14:04:30;25.90;66.30
31113;DHT22;17763;48.730;9.136;2022-07-21T14:07:01;25.90;66.00
31113;DHT22;17763;48.730;9.136;2022-07-21T14:09:26;25.90;66.70
31113;DHT22;17763;48.730;9.136;2022-07-21T14:11:52;25.90;66.20
31113;DHT22;17763;48.730;9.136;2022-07-21T14:14:18;26.00;66.40
31113;DHT22;17763;48.730;9.136;2022-07-21T14:16:47;26.10;67.00
31113;DHT22;17763;48.730;9.136;2022-07-21T14:19:14;26.20;68.20
31113;DHT22;17763;48.730;9.136;2022-07-21T14:21:42;26.30;64.20
31113;DHT22;17763;48.730;9.136;2022-07-21T14:24:10;26.40;63.50
31113;DHT22;17763;48.730;9.136;2022-07-21T14:26:57;26.40;63.30
31113;DHT22;17763;48.730;9.136;2022-07-21T14:29:22;26.40;62.40
31113;DHT22;17763;48.730;9.136;2022-07-21T14:31:50;26.40;62.30
31113;DHT22;17763;48.730;9.136;2022-07-21T14:34:16;26.40;63.00
31113;DHT22;17763;48.730;9.136;2022-07-21T14:36:45;26.40;63.00
31113;DHT22;17763;48.730;9.136;2022-07-21T14:39:13;26.40;62.90
31113;DHT22;17763;48.730;9.136;2022-07-21T14:41:38;26.40;63.50
31113;DHT22;17763;48.730;9.136;2022-07-21T14:44:04;26.40;65.10
31113;DHT22;17763;48.730;9.136;2022-07-21T14:46:30;26.40;64.90
31113;DHT22;17763;48.730;9.136;2022-07-21T14:48:56;26.40;65.00
31113;DHT22;17763;48.730;9.136;2022-07-21T14:51:22;26.40;64.30
31113;DHT22;17763;48.730;9.136;2022-07-21T14:53:50;26.40;64.00
31113;DHT22;17763;48.730;9.136;2022-07-21T14:56:18;26.30;64.30
31113;DHT22;17763;48.730;9.136;2022-07-21T14:58:44;26.30;64.30
31113;DHT22;17763;48.730;9.136;2022-07-21T15:01:11;26.20;63.80
31113;DHT22;17763;48.730;9.136;2022-07-21T15:03:42;26.20;63.60
31113;DHT22;17763;48.730;9.136;2022-07-21T15:06:08;26.20;63.20
31113;DHT22;17763;48.730;9.136;2022-07-21T15:08:34;26.30;63.50
31113;DHT22;17763;48.730;9.136;2022-07-21T15:11:02;26.30;63.20
31113;DHT22;17763;48.730;9.136;2022-07-21T15:13:28;26.30;62.60
31113;DHT22;17763;48.730;9.136;2022-07-21T15:15:55;26.30;61.80
31113;DHT22;17763;48.730;9.136;2022-07-21T15:18:21;26.40;62.50
31113;DHT22;17763;48.730;9.136;2022-07-21T15:20:48;26.40;63.00
31113;DHT22;17763;48.730;9.136;2022-07-21T15:23:14;26.30;62.10
31113;DHT22;17763;48.730;9.136;2022-07-21T15:25:39;26.30;62.10
31113;DHT22;17763;48.730;9.136;2022-07-21T15:28:06;26.40;62.90
31113;DHT22;17763;48.730;9.136;2022-07-21T15:30:37;26.50;62.20
31113;DHT22;17763;48.730;9.136;2022-07-21T15:33:08;26.60;61.60
31113;DHT22;17763;48.730;9.136;2022-07-21T15:35:33;26.80;62.50
31113;DHT22;17763;48.730;9.136;2022-07-21T15:37:59;26.90;62.30
31113;DHT22;17763;48.730;9.136;2022-07-21T15:40:27;26.90;62.10
31113;DHT22;17763;48.730;9.136;2022-07-21T15:42:52;26.80;61.80
31113;DHT22;17763;48.730;9.136;2022-07-21T15:45:18;26.70;61.40
31113;DHT22;17763;48.730;9.136;2022-07-21T15:47:44;26.70;61.50
31113;DHT22;17763;48.730;9.136;2022-07-21T15:50:09;26.60;61.00
31113;DHT22;17763;48.730;9.136;2022-07-21T15:52:41;26.50;61.50
31113;DHT22;17763;48.730;9.136;2022-07-21T15:55:10;26.50;61.30
31113;DHT22;17763;48.730;9.136;2022-07-21T15:57:40;26.50;62.20
31113;DHT22;17763;48.730;9.136;2022-07-21T16:00:12;26.50;62.10
31113;DHT22;17763;48.730;9.136;2022-07-21T16:02:39;26.50;61.70